Time;durP1;ratioP1;P1;durP2;ratioP2;P2;SDS_P1;SDS_P2;PMS_P1;PMS_P2;Temp;Humidity;BMP_temperature;BMP_pressure;BME280_temperature;BME280_humidity;BME280_pressure;Samples;Min_cycle;Max_cycle;Signal;HPM_P1;HPM_P2
2022/08/26 00:00:42;;;;;;;28.90;26.15;;;23.50;60.30;;;;;;4990832;28;20042;-68
2022/08/26 00:03:08;;;;;;;30.42;27.58;;;23.50;60.50;;;;;;4981392;28;20038;-69
2022/08/26 00:05:34;;;;;;;28.35;25.50;;;23.40;60.80;;;;;;5007606;28;20046;-69
2022/08/26 00:08:00;;;;;;;22.65;20.30;;;23.40;61.10;;;;;;4985175;28;20054;-69
2022/08/26 00:10:26;;;;;;;32.63;29.45;;;23.40;60.70;;;;;;4984934;28;20494;-69
2022/08/26 00:12:52;;;;;;;26.15;23.50;;;23.40;61.30;;;;;;4979716;28;20121;-68
2022/08/26 00:15:20;;;;;;;21.67;19.38;;;23.40;61.50;;;;;;4987923;28;20037;-68
2022/08/26 00:17:46;;;;;;;24.42;21.85;;;23.30;61.10;;;;;;4979411;28;20097;-68
2022/08/26 00:20:15;;;;;;;25.73;22.98;;;23.40;61.30;;;;;;4991938;28;20433;-68
2022/08/26 00:22:42;;;;;;;22.45;20.17;;;23.30;61.50;;;;;;4993256;28;20039;-68
2022/08/26 00:25:08;;;;;;;27.08;24.15;;;23.30;61.60;;;;;;4988851;28;20061;-68
2022/08/26 00:27:34;;;;;;;23.70;21.02;;;23.30;61.90;;;;;;4985271;28;20073;-68
2022/08/26 00:30:05;;;;;;;29.52;21.40;;;23.30;61.90;;;;;;4983713;28;20114;-68
2022/08/26 00:32:31;;;;;;;22.08;19.83;;;23.30;62.20;;;;;;4984001;28;20116;-68
2022/08/26 00:34:57;;;;;;;21.45;19.13;;;23.30;62.20;;;;;;4991056;28;20054;-68
2022/08/26 00:37:23;;;;;;;20.13;18.00;;;23.30;62.20;;;;;;4981472;28;20051;-68
2022/08/26 00:39:48;;;;;;;22.05;18.95;;;23.30;62.40;;;;;;5005839;28;20165;-68
2022/08/26 00:42:14;;;;;;;18.30;16.35;;;23.30;62.50;;;;;;4982090;28;20429;-68
2022/08/26 00:44:40;;;;;;;17.08;14.43;;;23.30;62.80;;;;;;4987326;28;20118;-67
2022/08/26 00:47:10;;;;;;;23.05;17.83;;;23.20;62.30;;;;;;4985826;28;20390;-68
2022/08/26 00:49:44;;;;;;;18.75;15.75;;;23.20;62.50;;;;;;4984079;28;20071;-68
2022/08/26 00:52:17;;;;;;;20.15;15.25;;;23.30;62.50;;;;;;4984039;28;20050;-68
2022/08/26 00:54:50;;;;;;;19.73;17.30;;;23.20;62.30;;;;;;4993543;28;20100;-69
2022/08/26 00:57:17;;;;;;;18.25;14.98;;;23.30;62.70;;;;;;4974565;28;20050;-69
2022/08/26 00:59:51;;;;;;;21.10;17.38;;;23.20;62.50;;;;;;4988945;28;20437;-69
2022/08/26 01:02:18;;;;;;;16.15;13.77;;;23.20;62.90;;;;;;4986247;28;20181;-69
2022/08/26 01:04:45;;;;;;;20.73;14.93;;;23.20;62.60;;;;;;4992663;28;20053;-69
2022/08/26 01:07:11;;;;;;;17.85;13.35;;;23.20;62.70;;;;;;4976327;28;20043;-66
2022/08/26 01:09:37;;;;;;;20.70;15.43;;;23.20;62.80;;;;;;4973954;28;20086;-66
2022/08/26 01:12:03;;;;;;;21.92;15.13;;;23.20;62.90;;;;;;4984475;28;20133;-66
2022/08/26 01:14:33;;;;;;;16.48;12.65;;;23.20;63.00;;;;;;4991569;28;20042;-66
2022/08/26 01:17:01;;;;;;;19.63;12.07;;;23.20;63.00;;;;;;4988331;28;20046;-66
2022/08/26 01:19:31;;;;;;;15.73;11.82;;;23.20;62.80;;;;;;4990846;28;20088;-66
2022/08/26 01:22:20;;;;;;;15.00;11.05;;;23.20;62.80;;;;;;4987814;28;20058;-69
2022/08/26 01:24:47;;;;;;;13.85;11.85;;;23.10;62.40;;;;;;4972439;28;20566;-69
2022/08/26 01:27:16;;;;;;;17.80;12.65;;;23.10;62.60;;;;;;4985186;28;20081;-68
2022/08/26 01:29:44;;;;;;;14.25;11.10;;;23.10;62.80;;;;;;4987906;28;20125;-68
2022/08/26 01:32:13;;;;;;;14.70;11.60;;;23.10;62.80;;;;;;4983606;28;20050;-68
2022/08/26 01:34:39;;;;;;;13.10;9.93;;;23.10;62.70;;;;;;4992446;28;20050;-68
2022/08/26 01:37:10;;;;;;;12.50;10.57;;;23.10;62.60;;;;;;4982369;28;20125;-69
2022/08/26 01:39:36;;;;;;;17.13;10.18;;;23.10;62.70;;;;;;4990263;28;20046;-69
2022/08/26 01:42:06;;;;;;;15.80;9.75;;;23.10;62.70;;;;;;4982342;28;20051;-68
2022/08/26 01:44:37;;;;;;;13.35;9.60;;;23.10;62.60;;;;;;4987435;28;20049;-68
2022/08/26 01:47:04;;;;;;;12.27;8.70;;;23.10;63.20;;;;;;4977133;28;20383;-68
2022/08/26 01:49:32;;;;;;;10.90;8.65;;;23.10;62.50;;;;;;4992558;28;20493;-68
2022/08/26 01:51:58;;;;;;;14.30;8.65;;;23.10;62.40;;;;;;4990767;28;20552;-68
2022/08/26 01:54:25;;;;;;;11.63;9.07;;;23.10;62.60;;;;;;4978697;28;20043;-68
2022/08/26 01:56:53;;;;;;;14.38;8.85;;;23.10;62.70;;;;;;4979985;28;20051;-68
2022/08/26 01:59:21;;;;;;;12.27;8.60;;;23.10;62.70;;;;;;4985009;28;20955;-68
2022/08/26 02:01:47;;;;;;;10.95;7.55;;;23.10;62.90;;;;;;4980097;28;20105;-68
2022/08/26 02:04:20;;;;;;;12.95;7.80;;;23.00;62.50;;;;;;4972052;28;20473;-68
2022/08/26 02:06:46;;;;;;;11.05;7.20;;;23.10;62.50;;;;;;4974663;28;20050;-68
2022/08/26 02:09:12;;;;;;;10.02;8.43;;;23.00;62.30;;;;;;4978348;28;20042;-68
2022/08/26 02:11:38;;;;;;;12.95;10.05;;;23.10;62.60;;;;;;4987834;28;20047;-68
2022/08/26 02:14:36;;;;;;;10.15;7.57;;;23.10;62.60;;;;;;4993807;28;20478;-68
2022/08/26 02:17:03;;;;;;;10.25;7.22;;;23.00;62.00;;;;;;4980248;28;20137;-68
2022/08/26 02:19:33;;;;;;;13.65;8.02;;;23.00;62.10;;;;;;4993518;28;20049;-68
2022/08/26 02:22:04;;;;;;;13.30;8.20;;;23.00;62.20;;;;;;4985932;28;20054;-68
2022/08/26 02:25:06;;;;;;;13.70;8.88;;;23.00;62.20;;;;;;4975297;28;20078;-68
2022/08/26 02:27:34;;;;;;;10.68;8.15;;;23.00;62.30;;;;;;4978662;28;20074;-66
2022/08/26 02:30:12;;;;;;;10.73;6.75;;;23.00;62.40;;;;;;4976442;28;20047;-66
2022/08/26 02:32:38;;;;;;;12.93;7.93;;;23.00;62.20;;;;;;4990767;28;20046;-66
2022/08/26 02:35:04;;;;;;;10.57;6.13;;;23.00;62.20;;;;;;4988538;28;20133;-66
2022/08/26 02:37:31;;;;;;;10.52;6.85;;;22.90;62.10;;;;;;4981420;28;20112;-66
2022/08/26 02:39:57;;;;;;;11.07;5.95;;;22.90;61.90;;;;;;4993491;28;20053;-66
2022/08/26 02:42:23;;;;;;;8.25;5.90;;;22.90;61.90;;;;;;4983025;28;20061;-66
2022/08/26 02:44:49;;;;;;;10.70;6.43;;;22.90;61.70;;;;;;4995620;28;20038;-66
2022/08/26 02:47:14;;;;;;;10.40;5.72;;;22.90;61.90;;;;;;4993088;28;20532;-65
2022/08/26 02:49:44;;;;;;;9.25;6.20;;;22.80;61.90;;;;;;4990067;28;20043;-66
2022/08/26 02:52:09;;;;;;;10.60;5.25;;;22.90;61.90;;;;;;4987082;28;20536;-66
2022/08/26 02:54:35;;;;;;;9.23;5.53;;;22.80;61.70;;;;;;4977088;28;20093;-66
2022/08/26 02:57:01;;;;;;;10.18;6.47;;;22.90;61.80;;;;;;4978859;28;20042;-66
2022/08/26 02:59:28;;;;;;;13.18;6.47;;;22.80;62.00;;;;;;4993542;28;20041;-65
2022/08/26 03:01:54;;;;;;;12.02;4.80;;;22.80;62.20;;;;;;4986378;28;20046;-65
2022/08/26 03:04:20;;;;;;;9.95;5.07;;;22.80;62.10;;;;;;4988464;28;20070;-65
2022/08/26 03:06:49;;;;;;;10.23;5.45;;;22.80;62.20;;;;;;4990403;28;20121;-66
2022/08/26 03:09:15;;;;;;;11.05;4.93;;;22.70;62.20;;;;;;4979816;28;20498;-66
2022/08/26 03:11:41;;;;;;;8.32;3.55;;;22.80;62.50;;;;;;4983816;28;20038;-66
2022/08/26 03:14:07;;;;;;;8.05;3.67;;;22.70;62.50;;;;;;4989432;28;20052;-66
2022/08/26 03:16:34;;;;;;;7.53;3.10;;;22.70;62.50;;;;;;4978487;28;20047;-66
2022/08/26 03:19:02;;;;;;;6.80;3.00;;;22.70;62.60;;;;;;4976755;28;20038;-66
2022/08/26 03:21:28;;;;;;;9.65;3.28;;;22.70;62.60;;;;;;4991661;28;20042;-66
2022/08/26 03:23:55;;;;;;;8.73;3.15;;;22.60;62.60;;;;;;4987037;28;20046;-66
2022/08/26 03:26:20;;;;;;;6.50;2.83;;;22.60;62.70;;;;;;4994718;28;20039;-67
2022/08/26 03:31:31;;;;;;;5.30;2.85;;;22.60;62.70;;;;;;4986064;28;20081;-68
2022/08/26 03:33:56;;;;;;;11.52;3.17;;;22.50;62.70;;;;;;4984694;28;20093;-68
2022/08/26 03:36:22;;;;;;;5.57;2.85;;;22.50;62.80;;;;;;4993129;28;20069;-68
2022/08/26 03:38:48;;;;;;;5.07;2.28;;;22.50;62.70;;;;;;4985651;28;20110;-68
2022/08/26 03:41:14;;;;;;;6.53;2.40;;;22.50;62.70;;;;;;4984948;28;20049;-68
2022/08/26 03:43:40;;;;;;;6.15;2.28;;;22.50;62.80;;;;;;4985271;28;20473;-68
2022/08/26 03:46:08;;;;;;;8.88;2.17;;;22.50;62.70;;;;;;4975676;28;20043;-68
2022/08/26 03:48:34;;;;;;;6.60;2.70;;;22.50;62.70;;;;;;4993039;28;20054;-68
2022/08/26 03:51:00;;;;;;;6.97;2.40;;;22.50;62.70;;;;;;4990627;28;20539;-68
2022/08/26 03:53:26;;;;;;;5.68;2.28;;;22.50;62.80;;;;;;5008600;28;20042;-68
2022/08/26 03:55:52;;;;;;;6.07;2.10;;;22.50;62.90;;;;;;4993451;28;20124;-68
2022/08/26 03:58:19;;;;;;;5.70;1.77;;;22.50;62.70;;;;;;4993840;28;20045;-68
2022/08/26 04:00:45;;;;;;;8.00;2.55;;;22.50;62.60;;;;;;4975738;28;20418;-68
2022/08/26 04:03:13;;;;;;;6.57;1.92;;;22.40;62.70;;;;;;4981441;28;20054;-68
2022/08/26 04:05:39;;;;;;;9.48;2.53;;;22.50;62.60;;;;;;4991634;28;20139;-68
2022/08/26 04:08:05;;;;;;;8.52;2.65;;;22.40;62.90;;;;;;4992207;28;20100;-68
2022/08/26 04:10:31;;;;;;;8.48;2.70;;;22.40;63.50;;;;;;4981763;28;20042;-67
2022/08/26 04:12:58;;;;;;;8.02;2.63;;;22.40;63.10;;;;;;4984026;28;20039;-68
2022/08/26 04:15:23;;;;;;;8.88;2.30;;;22.40;63.20;;;;;;4987280;28;20112;-68
2022/08/26 04:17:49;;;;;;;5.55;2.13;;;22.40;63.00;;;;;;4988275;28;20043;-68
2022/08/26 04:20:17;;;;;;;5.78;1.70;;;22.40;63.00;;;;;;4983910;28;20084;-68
2022/08/26 04:22:44;;;;;;;7.00;2.10;;;22.40;62.70;;;;;;4981566;28;20122;-69
2022/08/26 04:25:10;;;;;;;5.70;2.00;;;22.40;62.90;;;;;;4988679;28;20501;-68
2022/08/26 04:27:36;;;;;;;5.75;2.00;;;22.30;62.90;;;;;;4984832;28;20482;-69
2022/08/26 04:30:04;;;;;;;9.20;2.55;;;22.40;63.00;;;;;;4984023;28;20042;-68
2022/08/26 04:32:30;;;;;;;6.55;2.17;;;22.30;63.10;;;;;;4992270;28;20058;-68
2022/08/26 04:34:55;;;;;;;7.35;1.90;;;22.30;62.90;;;;;;4987797;28;20054;-68
2022/08/26 04:37:21;;;;;;;7.85;2.28;;;22.30;63.00;;;;;;4983850;28;20086;-68
2022/08/26 04:39:53;;;;;;;8.48;2.25;;;22.30;63.00;;;;;;4980899;28;20069;-68
2022/08/26 04:42:18;;;;;;;9.98;2.63;;;22.30;63.10;;;;;;4991644;28;20054;-68
2022/08/26 04:44:45;;;;;;;7.03;2.15;;;22.30;63.00;;;;;;4991945;28;20043;-68
2022/08/26 04:47:10;;;;;;;11.32;2.30;;;22.30;63.20;;;;;;4992837;28;20386;-68
2022/08/26 04:49:37;;;;;;;7.13;2.00;;;22.30;63.70;;;;;;4959630;28;20046;-69
2022/08/26 04:52:04;;;;;;;8.07;2.35;;;22.30;63.10;;;;;;4974163;28;20542;-68
2022/08/26 04:54:29;;;;;;;7.82;2.33;;;22.30;63.00;;;;;;4985420;28;20054;-69
2022/08/26 04:56:55;;;;;;;6.97;2.50;;;22.30;63.00;;;;;;4987235;28;20057;-68
2022/08/26 04:59:21;;;;;;;6.30;2.30;;;22.30;63.20;;;;;;4989103;28;20039;-68
2022/08/26 05:01:50;;;;;;;8.07;1.95;;;22.30;63.10;;;;;;4975010;28;20046;-68
2022/08/26 05:04:17;;;;;;;6.30;2.35;;;22.30;63.20;;;;;;4991907;28;20034;-68
2022/08/26 05:06:43;;;;;;;6.72;2.13;;;22.30;63.10;;;;;;4983816;28;20039;-69
2022/08/26 05:09:09;;;;;;;9.35;2.15;;;22.30;63.00;;;;;;4967272;28;20049;-68
2022/08/26 05:11:36;;;;;;;8.82;2.30;;;22.30;63.20;;;;;;4986283;28;20048;-68
2022/08/26 05:14:01;;;;;;;9.82;3.10;;;22.30;63.30;;;;;;4974105;28;20079;-68
2022/08/26 05:16:29;;;;;;;6.38;2.63;;;22.40;63.80;;;;;;5007753;28;20074;-68
2022/08/26 05:18:54;;;;;;;6.63;1.73;;;22.40;63.30;;;;;;4991082;28;20144;-68
2022/08/26 05:21:23;;;;;;;5.53;1.73;;;22.40;63.20;;;;;;4988650;28;20085;-69
2022/08/26 05:23:50;;;;;;;7.53;2.50;;;22.40;63.10;;;;;;5004683;28;20054;-68
2022/08/26 05:26:17;;;;;;;8.68;2.38;;;22.40;63.10;;;;;;4973916;28;20505;-68
2022/08/26 05:28:44;;;;;;;9.90;2.97;;;22.40;63.10;;;;;;4977420;28;20038;-68
2022/08/26 05:31:20;;;;;;;6.20;2.63;;;22.50;63.50;;;;;;4976670;28;20051;-68
2022/08/26 05:33:46;;;;;;;9.88;2.35;;;22.50;63.50;;;;;;4973508;28;20573;-68
2022/08/26 05:36:14;;;;;;;9.73;2.45;;;22.50;63.40;;;;;;4982813;28;20059;-68
2022/08/26 05:38:41;;;;;;;12.55;2.60;;;22.50;63.30;;;;;;4980744;28;20410;-65
2022/08/26 05:41:14;;;;;;;8.00;2.40;;;22.50;63.20;;;;;;4974001;28;20451;-65
2022/08/26 05:43:39;;;;;;;10.57;2.85;;;22.60;63.20;;;;;;4984586;28;20050;-65
2022/08/26 05:46:06;;;;;;;8.80;2.05;;;22.60;63.30;;;;;;4984663;28;20105;-66
2022/08/26 05:48:32;;;;;;;6.95;2.20;;;22.60;63.10;;;;;;4975605;28;20043;-65
2022/08/26 05:51:02;;;;;;;8.77;2.88;;;22.60;63.00;;;;;;4987998;28;20105;-65
2022/08/26 05:53:28;;;;;;;5.38;2.08;;;22.60;63.30;;;;;;4991204;28;20057;-65
2022/08/26 05:55:54;;;;;;;9.45;2.78;;;22.60;63.20;;;;;;4980953;28;20046;-65
2022/08/26 05:58:22;;;;;;;7.70;2.20;;;22.60;63.20;;;;;;4989701;28;20517;-65
2022/08/26 06:01:06;;;;;;;10.02;2.95;;;22.60;63.20;;;;;;4994027;28;20417;-65
2022/08/26 06:03:34;;;;;;;8.15;2.45;;;22.60;62.80;;;;;;4987436;28;20074;-65
2022/08/26 06:06:09;;;;;;;9.07;2.55;;;22.60;62.90;;;;;;4987148;28;20053;-65
2022/08/26 06:08:35;;;;;;;6.55;1.85;;;22.60;62.90;;;;;;4994606;28;20034;-65
2022/08/26 06:11:03;;;;;;;6.28;1.98;;;22.60;62.90;;;;;;4989291;28;20053;-65
2022/08/26 06:13:30;;;;;;;7.18;2.40;;;22.60;62.90;;;;;;4994498;28;20104;-65
2022/08/26 06:15:57;;;;;;;9.15;2.00;;;22.60;62.90;;;;;;4989719;28;20046;-65
2022/08/26 06:18:31;;;;;;;9.30;2.55;;;22.60;62.90;;;;;;4990316;28;20042;-65
2022/08/26 06:20:58;;;;;;;10.43;2.80;;;22.60;62.80;;;;;;4995326;28;20053;-65
2022/08/26 06:26:10;;;;;;;7.55;2.40;;;22.60;63.00;;;;;;4987814;28;20730;-65
2022/08/26 06:28:36;;;;;;;9.10;2.50;;;22.60;62.90;;;;;;5008267;28;20046;-65
2022/08/26 06:31:02;;;;;;;9.00;2.13;;;22.60;62.90;;;;;;4990114;28;20209;-66
2022/08/26 06:33:28;;;;;;;6.35;1.90;;;22.60;62.80;;;;;;4980785;28;20046;-65
2022/08/26 06:35:54;;;;;;;8.15;2.50;;;22.60;62.60;;;;;;4993468;28;20063;-65
2022/08/26 06:38:20;;;;;;;5.78;2.05;;;22.60;62.50;;;;;;4989703;28;20039;-65
2022/08/26 06:40:48;;;;;;;7.38;1.92;;;22.60;62.60;;;;;;5010509;28;20034;-65
2022/08/26 06:43:16;;;;;;;8.63;2.08;;;22.60;62.80;;;;;;4995437;28;20034;-65
2022/08/26 06:45:44;;;;;;;6.13;1.80;;;22.60;63.20;;;;;;5004139;28;20080;-65
2022/08/26 06:48:11;;;;;;;7.53;2.08;;;22.60;62.80;;;;;;5001472;28;20493;-69
2022/08/26 06:50:37;;;;;;;10.27;2.55;;;22.60;62.90;;;;;;4994223;28;20048;-69
2022/08/26 06:53:03;;;;;;;6.32;1.92;;;22.60;62.90;;;;;;4993511;28;20042;-69
2022/08/26 06:55:29;;;;;;;6.13;2.22;;;22.60;63.00;;;;;;4995572;28;20390;-69
2022/08/26 06:57:55;;;;;;;7.85;2.13;;;22.50;63.10;;;;;;4992792;28;20096;-69
2022/08/26 07:00:21;;;;;;;9.35;1.88;;;22.50;63.20;;;;;;4994132;28;20038;-69
2022/08/26 07:02:46;;;;;;;7.95;1.90;;;22.40;63.30;;;;;;4980481;28;20058;-69
2022/08/26 07:05:13;;;;;;;9.23;2.47;;;22.40;63.50;;;;;;4977911;28;20421;-69
2022/08/26 07:07:38;;;;;;;7.63;1.88;;;22.40;63.80;;;;;;4982155;28;20043;-69
2022/08/26 07:10:05;;;;;;;6.15;1.58;;;22.30;63.90;;;;;;4974681;28;20042;-69
2022/08/26 07:12:30;;;;;;;7.22;2.42;;;22.30;64.10;;;;;;4983617;28;20085;-69
2022/08/26 07:14:56;;;;;;;8.45;2.40;;;22.20;64.10;;;;;;4976140;28;20074;-69
2022/08/26 07:17:22;;;;;;;5.40;1.58;;;22.20;64.20;;;;;;5012086;28;20042;-69
2022/08/26 07:19:48;;;;;;;7.82;2.40;;;22.20;64.40;;;;;;5006740;28;20042;-69
2022/08/26 07:22:14;;;;;;;6.57;1.52;;;22.10;64.40;;;;;;4996792;28;20094;-69
2022/08/26 07:24:40;;;;;;;4.68;1.33;;;22.10;64.60;;;;;;4998195;28;20042;-69
2022/08/26 07:27:09;;;;;;;7.53;2.03;;;22.10;64.70;;;;;;5002066;28;20601;-69
2022/08/26 07:29:37;;;;;;;11.65;2.35;;;22.10;65.00;;;;;;5003773;28;20502;-69
2022/08/26 07:32:04;;;;;;;6.68;1.85;;;22.10;65.50;;;;;;4995396;28;20069;-69
2022/08/26 07:34:33;;;;;;;8.20;2.05;;;22.00;65.00;;;;;;5001098;28;20063;-69
2022/08/26 07:36:59;;;;;;;7.22;1.80;;;22.00;65.10;;;;;;4995389;28;20054;-65
2022/08/26 07:39:25;;;;;;;7.13;1.88;;;22.00;65.10;;;;;;4994155;28;20087;-65
2022/08/26 07:41:51;;;;;;;9.57;1.98;;;22.00;64.90;;;;;;4989446;28;20089;-65
2022/08/26 07:44:17;;;;;;;7.25;1.30;;;22.00;65.00;;;;;;4990903;28;20046;-65
2022/08/26 07:46:44;;;;;;;5.88;1.30;;;22.00;65.00;;;;;;4992147;28;20053;-65
2022/08/26 07:49:10;;;;;;;7.43;2.05;;;22.00;65.00;;;;;;4975072;28;20046;-64
2022/08/26 07:51:37;;;;;;;6.50;1.50;;;22.10;65.10;;;;;;4973750;28;20058;-65
2022/08/26 07:54:04;;;;;;;7.20;1.70;;;22.10;65.10;;;;;;4993304;28;20078;-65
2022/08/26 07:56:30;;;;;;;7.72;1.90;;;22.10;65.10;;;;;;4993073;28;20042;-65
2022/08/26 07:58:56;;;;;;;6.43;1.48;;;22.20;65.10;;;;;;4976272;28;20049;-65
2022/08/26 08:01:24;;;;;;;5.93;1.85;;;22.20;64.90;;;;;;4974938;28;20394;-65
2022/08/26 08:03:50;;;;;;;6.47;2.10;;;22.20;64.70;;;;;;4987567;28;20438;-65
2022/08/26 08:06:21;;;;;;;8.68;1.80;;;22.30;64.60;;;;;;4974538;28;20067;-65
2022/08/26 08:08:48;;;;;;;7.00;1.40;;;22.30;64.50;;;;;;5009206;28;20150;-65
2022/08/26 08:11:13;;;;;;;7.70;1.80;;;22.30;64.30;;;;;;4994057;28;20496;-65
2022/08/26 08:13:39;;;;;;;6.40;1.70;;;22.30;64.20;;;;;;4992250;28;20038;-65
2022/08/26 08:16:06;;;;;;;8.93;1.98;;;22.40;64.20;;;;;;4989115;28;20038;-65
2022/08/26 08:18:32;;;;;;;8.60;1.80;;;22.40;64.10;;;;;;4984142;28;20338;-65
2022/08/26 08:21:00;;;;;;;7.60;1.92;;;22.40;64.00;;;;;;4991846;28;20042;-65
2022/08/26 08:23:26;;;;;;;4.97;1.60;;;22.40;63.80;;;;;;4992516;28;20054;-65
2022/08/26 08:26:00;;;;;;;7.18;1.30;;;22.50;63.70;;;;;;4993801;28;20632;-65
2022/08/26 08:28:26;;;;;;;8.55;1.60;;;22.60;63.50;;;;;;4984540;28;20047;-65
2022/08/26 08:30:51;;;;;;;4.05;1.55;;;22.60;63.40;;;;;;4984878;28;20402;-65
2022/08/26 08:33:17;;;;;;;6.07;1.45;;;22.60;63.00;;;;;;4986154;28;20039;-65
2022/08/26 08:35:44;;;;;;;6.60;1.50;;;22.60;62.80;;;;;;4984656;28;20074;-65
2022/08/26 08:38:10;;;;;;;5.57;1.50;;;22.70;62.80;;;;;;4992603;28;20378;-65
2022/08/26 08:40:39;;;;;;;6.63;1.05;;;22.70;62.80;;;;;;4981091;28;20049;-65
2022/08/26 08:43:08;;;;;;;4.97;1.20;;;22.70;62.80;;;;;;4960801;28;20057;-65
2022/08/26 08:45:48;;;;;;;5.53;1.45;;;22.80;62.80;;;;;;5008160;28;20038;-65
2022/08/26 08:48:28;;;;;;;7.40;1.85;;;22.80;62.70;;;;;;5004817;28;20045;-65
2022/08/26 08:51:02;;;;;;;7.40;1.08;;;22.80;62.40;;;;;;4975205;28;20553;-65
2022/08/26 08:53:41;;;;;;;10.82;1.75;;;22.80;62.20;;;;;;4990004;28;20125;-65
2022/08/26 08:56:22;;;;;;;5.45;1.20;;;22.80;62.10;;;;;;4977196;28;20509;-65
2022/08/26 08:58:51;;;;;;;6.45;1.70;;;22.80;61.90;;;;;;4980709;28;20073;-65
2022/08/26 09:01:34;;;;;;;7.00;1.38;;;22.80;61.90;;;;;;4973587;28;20051;-65
2022/08/26 09:04:23;;;;;;;9.23;1.40;;;22.80;61.80;;;;;;4981257;28;20044;-65
2022/08/26 09:06:53;;;;;;;5.13;1.20;;;22.80;61.70;;;;;;4972066;28;20449;-67
2022/08/26 09:09:44;;;;;;;7.25;1.77;;;22.80;61.70;;;;;;4982920;28;20092;-67
2022/08/26 09:12:20;;;;;;;7.50;1.58;;;22.80;62.00;;;;;;4991464;28;20049;-67
2022/08/26 09:14:50;;;;;;;8.25;2.00;;;22.80;61.80;;;;;;4976745;28;20043;-67
2022/08/26 09:17:34;;;;;;;10.90;1.73;;;22.90;61.80;;;;;;4990964;28;20077;-67
2022/08/26 09:20:23;;;;;;;7.43;1.65;;;22.80;61.30;;;;;;4992586;28;20465;-67
2022/08/26 09:22:50;;;;;;;9.65;1.80;;;22.80;61.10;;;;;;4994248;28;20474;-67
2022/08/26 09:25:15;;;;;;;7.32;1.67;;;22.70;61.20;;;;;;4994428;28;20042;-67
2022/08/26 09:27:45;;;;;;;5.45;1.30;;;22.70;61.10;;;;;;4994445;28;20113;-67
2022/08/26 09:30:22;;;;;;;5.75;1.55;;;22.70;61.10;;;;;;4978471;28;20039;-67
2022/08/26 09:33:08;;;;;;;5.78;1.30;;;22.60;61.30;;;;;;4974933;28;20122;-67
2022/08/26 09:35:45;;;;;;;6.65;1.20;;;22.60;61.20;;;;;;4954834;28;1103594;-68
2022/08/26 09:38:31;;;;;;;5.85;1.20;;;22.70;61.40;;;;;;4995772;28;20174;-68
2022/08/26 09:41:03;;;;;;;6.40;1.55;;;22.70;61.40;;;;;;4977248;28;20498;-68
2022/08/26 09:43:29;;;;;;;6.35;1.58;;;22.70;61.30;;;;;;4989002;28;20077;-68
2022/08/26 09:46:12;;;;;;;4.78;1.17;;;22.70;61.20;;;;;;4977206;28;20043;-68
2022/08/26 09:48:39;;;;;;;6.75;1.33;;;22.70;61.00;;;;;;4976350;28;20482;-68
2022/08/26 09:51:25;;;;;;;5.03;1.23;;;22.70;61.20;;;;;;4976200;28;20053;-68
2022/08/26 09:54:01;;;;;;;4.95;1.25;;;22.80;61.30;;;;;;4993273;28;20039;-68
2022/08/26 09:56:35;;;;;;;4.80;1.10;;;22.80;61.10;;;;;;4982003;28;20050;-68
2022/08/26 09:59:02;;;;;;;6.63;1.90;;;22.70;61.20;;;;;;4994205;28;20046;-68
2022/08/26 10:01:32;;;;;;;6.50;1.50;;;22.70;61.30;;;;;;4996353;28;20398;-68
2022/08/26 10:04:18;;;;;;;5.88;1.27;;;22.80;61.40;;;;;;4994597;28;20042;-68
2022/08/26 10:07:06;;;;;;;10.30;1.50;;;22.80;61.20;;;;;;4975775;28;20038;-65
2022/08/26 10:09:37;;;;;;;7.65;1.83;;;22.70;60.90;;;;;;4979829;28;20061;-66
2022/08/26 10:12:11;;;;;;;5.13;1.42;;;22.70;61.50;;;;;;4995108;28;20077;-65
2022/08/26 10:14:47;;;;;;;7.20;1.05;;;22.70;61.00;;;;;;4990479;28;20121;-65
2022/08/26 10:17:15;;;;;;;6.72;1.63;;;22.70;61.00;;;;;;4992547;28;20042;-65
2022/08/26 10:19:49;;;;;;;8.02;1.70;;;22.60;60.90;;;;;;4994561;28;20046;-65
2022/08/26 10:22:41;;;;;;;5.90;1.00;;;22.60;61.00;;;;;;4994818;28;20046;-65
2022/08/26 10:25:12;;;;;;;6.63;1.55;;;22.60;61.00;;;;;;4977262;28;20043;-65
2022/08/26 10:27:41;;;;;;;5.32;1.88;;;22.60;61.30;;;;;;4975090;28;20098;-65
2022/08/26 10:30:13;;;;;;;4.65;1.20;;;22.60;61.30;;;;;;4988824;28;20057;-65
2022/08/26 10:32:47;;;;;;;3.53;0.80;;;22.60;61.40;;;;;;4992241;28;20034;-65
2022/08/26 10:35:16;;;;;;;5.68;1.15;;;22.60;61.50;;;;;;5010530;28;20053;-65
2022/08/26 10:37:49;;;;;;;5.63;1.13;;;22.60;61.60;;;;;;4978014;28;20038;-65
2022/08/26 10:40:40;;;;;;;4.47;0.93;;;22.60;61.50;;;;;;5003062;28;20046;-65
2022/08/26 10:43:12;;;;;;;4.55;1.33;;;22.60;61.40;;;;;;4995709;28;20504;-65
2022/08/26 10:45:46;;;;;;;4.72;0.82;;;22.60;61.30;;;;;;5001354;28;20092;-65
2022/08/26 10:48:20;;;;;;;5.75;1.02;;;22.70;61.20;;;;;;5004266;28;20393;-65
2022/08/26 10:50:46;;;;;;;5.57;1.13;;;22.70;61.10;;;;;;5004824;28;20150;-65
2022/08/26 10:53:19;;;;;;;3.88;1.20;;;22.70;61.20;;;;;;4995726;28;20056;-65
2022/08/26 10:55:47;;;;;;;3.83;0.80;;;22.70;60.90;;;;;;4988823;28;20043;-65
2022/08/26 10:58:22;;;;;;;3.47;0.95;;;22.70;60.70;;;;;;4988165;28;20402;-66
2022/08/26 11:04:28;;;;;;;5.32;1.10;;;22.70;60.80;;;;;;4999327;28;20073;-65
2022/08/26 11:07:31;;;;;;;4.43;1.15;;;22.70;60.70;;;;;;4986535;28;20049;-65
2022/08/26 11:10:04;;;;;;;5.63;1.02;;;22.70;60.50;;;;;;5001848;28;20371;-65
2022/08/26 11:12:35;;;;;;;3.08;1.00;;;22.70;60.60;;;;;;4991537;28;20050;-65
2022/08/26 11:15:12;;;;;;;4.78;1.00;;;22.70;60.40;;;;;;4988838;28;20050;-65
2022/08/26 11:17:43;;;;;;;4.75;1.40;;;22.70;60.30;;;;;;4990419;28;20482;-65
2022/08/26 11:20:31;;;;;;;3.17;1.00;;;22.80;60.40;;;;;;4988725;28;20042;-65
2022/08/26 11:23:13;;;;;;;7.05;1.33;;;22.80;60.30;;;;;;4984737;28;20042;-68
2022/08/26 11:25:59;;;;;;;7.78;1.52;;;22.80;60.20;;;;;;4989809;28;20046;-68
2022/08/26 11:28:38;;;;;;;6.80;1.35;;;22.80;60.20;;;;;;4989692;28;20222;-68
2022/08/26 11:31:08;;;;;;;6.22;1.33;;;22.80;60.30;;;;;;4988579;28;20050;-68
2022/08/26 11:33:50;;;;;;;5.18;0.73;;;22.80;60.30;;;;;;4989970;28;20522;-68
2022/08/26 11:36:38;;;;;;;3.50;0.90;;;22.80;59.90;;;;;;4989238;28;20192;-69
2022/08/26 11:39:30;;;;;;;7.35;1.45;;;22.80;59.90;;;;;;4988244;28;20061;-68
2022/08/26 11:42:15;;;;;;;3.95;0.93;;;22.90;60.00;;;;;;4987330;28;20054;-68
2022/08/26 11:44:42;;;;;;;6.50;1.17;;;22.90;59.60;;;;;;4989136;28;20446;-68
2022/08/26 11:47:12;;;;;;;5.55;1.35;;;22.90;59.80;;;;;;4987776;28;20042;-69
2022/08/26 11:49:38;;;;;;;5.07;1.20;;;22.90;59.90;;;;;;4988541;28;20069;-68
2022/08/26 11:52:23;;;;;;;3.15;1.02;;;22.90;59.70;;;;;;4988915;28;20049;-69
2022/08/26 11:55:08;;;;;;;7.72;1.42;;;23.00;59.50;;;;;;4989496;28;20137;-69
2022/08/26 11:57:40;;;;;;;4.82;1.60;;;22.90;59.30;;;;;;4987977;28;20053;-69
2022/08/26 12:00:09;;;;;;;5.82;1.13;;;22.90;59.50;;;;;;4991079;28;20274;-69
2022/08/26 12:02:35;;;;;;;4.60;1.25;;;22.90;59.80;;;;;;4978288;28;20105;-69
2022/08/26 12:05:01;;;;;;;5.00;1.20;;;22.90;59.70;;;;;;4987859;28;20046;-68
2022/08/26 12:07:28;;;;;;;5.70;1.30;;;22.80;59.60;;;;;;4992194;28;20089;-68
2022/08/26 12:09:57;;;;;;;5.68;1.60;;;22.80;59.60;;;;;;4990468;28;20039;-68
2022/08/26 12:12:29;;;;;;;5.00;0.80;;;22.80;59.60;;;;;;4986077;28;20042;-69
2022/08/26 12:15:21;;;;;;;4.35;0.80;;;22.80;59.70;;;;;;4992873;28;20042;-69
2022/08/26 12:17:48;;;;;;;4.55;1.17;;;22.80;59.80;;;;;;4990575;28;20046;-69
2022/08/26 12:20:47;;;;;;;6.28;1.00;;;22.70;59.70;;;;;;4992953;28;20054;-69
2022/08/26 12:23:35;;;;;;;8.52;1.50;;;22.80;59.50;;;;;;4960165;28;20061;-69
2022/08/26 12:26:28;;;;;;;5.43;1.25;;;22.80;59.50;;;;;;4992390;28;20046;-69
2022/08/26 12:28:56;;;;;;;5.22;1.40;;;22.80;59.50;;;;;;4982126;28;20042;-68
2022/08/26 12:31:34;;;;;;;4.47;1.10;;;22.90;59.60;;;;;;4991856;28;20046;-68
2022/08/26 12:34:02;;;;;;;3.60;0.82;;;22.90;59.30;;;;;;4992608;28;20076;-68
2022/08/26 12:36:56;;;;;;;4.70;0.90;;;22.90;59.30;;;;;;4990599;28;20086;-69
2022/08/26 12:39:37;;;;;;;3.78;0.90;;;22.90;59.20;;;;;;4972545;28;20046;-69
2022/08/26 12:42:40;;;;;;;5.00;0.95;;;22.90;59.20;;;;;;4986588;28;20114;-69
2022/08/26 12:45:07;;;;;;;4.07;1.10;;;22.90;59.30;;;;;;4992221;28;20045;-69
2022/08/26 12:47:37;;;;;;;2.15;0.60;;;22.80;59.50;;;;;;4992211;28;20481;-69
2022/08/26 12:50:05;;;;;;;5.85;1.25;;;22.80;59.60;;;;;;4992516;28;20046;-68
2022/08/26 12:52:38;;;;;;;6.68;1.08;;;22.80;59.60;;;;;;4990776;28;20042;-68
2022/08/26 12:55:16;;;;;;;8.02;1.55;;;22.80;59.90;;;;;;4992236;28;20069;-68
2022/08/26 12:57:42;;;;;;;4.32;1.10;;;22.80;59.90;;;;;;4984750;28;20109;-68
2022/08/26 13:00:35;;;;;;;6.40;1.33;;;22.80;59.90;;;;;;4991395;28;20489;-68
2022/08/26 13:03:02;;;;;;;5.22;1.23;;;22.80;59.50;;;;;;4980955;28;20046;-69
2022/08/26 13:05:34;;;;;;;4.85;1.30;;;22.80;59.60;;;;;;4974189;28;20046;-68
2022/08/26 13:08:26;;;;;;;5.10;1.40;;;22.80;59.10;;;;;;4979175;28;20094;-69